首页
METAR-TAF:

METAR-TAF

机场 :

Four Corners Regional Airport

Farmington, 新墨西哥州, 美国

纬度: 36-44-37N, 经度: 108-13-45W, 海拔: 1677米

当前天气观测

该预报发布于1小时和14分钟前的10:53 UTC
风速8节,风向
温度 19°C
湿度 56%
气压 1020 hPa
能見度: 16.1公里
天空无云

METAR: KFMN 251053Z AUTO 09008KT 10SM CLR 19/10 A3012 RMK AO2 SLP124 T01940100

时间: 06:07 (12:07 UTC)

预报

该预报发布于47分钟前的11:20 UTC
预报有效从25日的 12点(UTC)到 26日的 12点(UTC)
风速7节,风向
能見度: 10公里
少量云层高于15000英尺
从 25日的 2000点(UTC)
风速10节,风向西
能見度: 10公里
散云层高于13000英尺
从 26日的 0200点(UTC)
风速6节,风向西北
能見度: 10公里
散云层高于13000英尺

TAF: KFMN 251120Z 2512/2612 09007KT P6SM FEW150 FM252000 27010KT P6SM SCT130 FM260200 31006KT P6SM SCT130

超过4000个机场的气象观测和天气预报(METAR&TAF报告)。

可查询的气象台以黄色和红色小点在地图上表示。

将鼠标移到小点上方,可查看气象台名称。

然后点击查看天气观测和预报。

如需切换地图:点击带黑十字的绿色按钮放大地图;点击带横线的绿色按钮缩小地图;或者点击绿色箭头查看邻近地区的地图。


METAR-TAF: